Time;durP1;ratioP1;P1;durP2;ratioP2;P2;SDS_P1;SDS_P2;PMS_P1;PMS_P2;Temp;Humidity;BMP_temperature;BMP_pressure;BME280_temperature;BME280_humidity;BME280_pressure;Samples;Min_cycle;Max_cycle;Signal;HPM_P1;HPM_P2
2023/04/07 00:02:25;;;;;;;61.20;44.30;;;;;;;0.73;100.00;98936.43;109558;1251;64077;-74
2023/04/07 00:04:52;;;;;;;54.80;41.40;;;;;;;0.74;100.00;98933.95;109527;1251;59316;-74
2023/04/07 00:07:19;;;;;;;61.00;43.90;;;;;;;0.73;100.00;98932.23;109578;1251;59123;-74
2023/04/07 00:09:45;;;;;;;56.40;42.00;;;;;;;0.73;100.00;98928.55;109579;1251;59196;-74
2023/04/07 00:12:12;;;;;;;58.50;41.50;;;;;;;0.73;100.00;98927.67;109541;1251;59166;-74
2023/04/07 00:14:38;;;;;;;55.90;41.60;;;;;;;0.73;100.00;98923.50;109499;1251;62794;-74
2023/04/07 00:17:05;;;;;;;59.10;42.30;;;;;;;0.74;100.00;98922.95;109391;1251;59054;-74
2023/04/07 00:19:32;;;;;;;58.00;41.20;;;;;;;0.74;100.00;98920.84;109637;1251;59364;-74
2023/04/07 00:21:59;;;;;;;60.00;42.40;;;;;;;0.74;100.00;98918.05;109666;1251;66020;-74
2023/04/07 00:24:26;;;;;;;59.60;43.80;;;;;;;0.75;100.00;98914.67;109632;1251;60179;-74
2023/04/07 00:26:52;;;;;;;56.00;41.90;;;;;;;0.76;100.00;98910.64;109585;1251;64053;-74
2023/04/07 00:29:19;;;;;;;61.60;43.90;;;;;;;0.75;100.00;98908.40;109579;1251;59000;-74
2023/04/07 00:31:45;;;;;;;58.30;40.90;;;;;;;0.74;100.00;98906.85;109561;1251;59158;-74
2023/04/07 00:34:12;;;;;;;61.90;44.00;;;;;;;0.74;100.00;98903.17;109571;1251;58960;-74
2023/04/07 00:36:38;;;;;;;59.60;41.20;;;;;;;0.75;100.00;98898.09;109524;1251;58957;-74
2023/04/07 00:39:05;;;;;;;56.10;41.00;;;;;;;0.74;100.00;98898.63;109540;1251;59249;-74
2023/04/07 00:41:33;;;;;;;59.60;42.00;;;;;;;0.74;100.00;98897.94;109561;1251;59252;-74
2023/04/07 00:44:00;;;;;;;60.80;42.40;;;;;;;0.73;100.00;98897.96;109535;1251;59015;-74
2023/04/07 00:46:27;;;;;;;56.90;43.40;;;;;;;0.74;100.00;98900.56;109551;1251;66094;-74
2023/04/07 00:48:53;;;;;;;57.90;40.70;;;;;;;0.74;100.00;98899.50;109549;1251;60019;-74
2023/04/07 00:51:21;;;;;;;50.70;37.30;;;;;;;0.75;100.00;98895.81;109414;1251;64206;-74
2023/04/07 00:53:48;;;;;;;58.60;43.20;;;;;;;0.75;100.00;98892.30;109520;1251;59031;-74
2023/04/07 00:56:15;;;;;;;62.40;45.20;;;;;;;0.75;100.00;98888.28;109580;1251;59108;-74
2023/04/07 00:58:41;;;;;;;62.40;43.70;;;;;;;0.75;100.00;98889.70;109547;1251;59286;-74
2023/04/07 01:01:32;;;;;;;66.30;46.40;;;;;;;0.75;100.00;98890.56;109581;1251;58983;-74
2023/04/07 01:04:08;;;;;;;66.40;46.10;;;;;;;0.76;100.00;98882.83;109267;1251;64053;-74
2023/04/07 01:06:39;;;;;;;62.00;45.20;;;;;;;0.77;100.00;98879.14;109563;1251;59004;-74
2023/04/07 01:09:29;;;;;;;59.20;43.60;;;;;;;0.76;100.00;98875.13;109509;1251;59396;-74
2023/04/07 01:12:35;;;;;;;55.20;40.40;;;;;;;0.75;100.00;98872.55;109561;1251;66060;-74
2023/04/07 01:15:08;;;;;;;58.40;39.70;;;;;;;0.74;100.00;98869.27;108878;1259;60145;-74
2023/04/07 01:17:37;;;;;;;59.90;41.30;;;;;;;0.74;100.00;98867.15;108918;1259;62861;-74
2023/04/07 01:20:07;;;;;;;56.30;41.00;;;;;;;0.76;100.00;98869.37;108935;1259;59472;-75
2023/04/07 01:22:44;;;;;;;57.90;40.90;;;;;;;0.76;100.00;98870.77;108874;1259;59022;-74
2023/04/07 01:25:34;;;;;;;55.40;40.80;;;;;;;0.77;100.00;98872.33;108931;1259;66080;-74
2023/04/07 01:28:10;;;;;;;58.00;39.90;;;;;;;0.78;100.00;98872.11;108934;1259;59929;-74
2023/04/07 01:30:40;;;;;;;58.90;42.30;;;;;;;0.80;100.00;98871.16;108933;1259;62851;-74
2023/04/07 01:33:09;;;;;;;58.90;42.80;;;;;;;0.81;100.00;98871.31;108769;1259;59027;-74
2023/04/07 01:35:38;;;;;;;62.00;43.00;;;;;;;0.83;100.00;98867.60;108955;1259;58971;-74
2023/04/07 01:38:05;;;;;;;58.20;41.20;;;;;;;0.83;100.00;98866.36;108966;1259;64803;-74
2023/04/07 01:40:35;;;;;;;57.20;40.40;;;;;;;0.84;100.00;98865.13;108972;1259;60299;-74
2023/04/07 01:43:02;;;;;;;57.00;40.70;;;;;;;0.84;100.00;98864.41;108949;1259;62845;-74
2023/04/07 01:45:30;;;;;;;59.90;42.00;;;;;;;0.84;100.00;98865.46;108953;1259;58993;-74
2023/04/07 01:47:58;;;;;;;53.90;39.40;;;;;;;0.87;100.00;98865.75;108970;1259;59271;-74
2023/04/07 01:50:26;;;;;;;51.10;36.90;;;;;;;0.88;100.00;98865.18;109215;1251;66056;-74
2023/04/07 01:52:52;;;;;;;50.70;39.20;;;;;;;0.86;100.00;98860.85;109540;1250;60219;-74
2023/04/07 01:55:20;;;;;;;53.00;39.60;;;;;;;0.85;100.00;98858.61;109555;1251;64018;-74
2023/04/07 01:57:46;;;;;;;56.70;42.20;;;;;;;0.84;100.00;98861.27;109604;1251;59073;-74
2023/04/07 02:00:38;;;;;;;56.30;41.30;;;;;;;0.84;100.00;98860.75;109400;1251;59252;-74
2023/04/07 02:03:10;;;;;;;55.60;39.10;;;;;;;0.84;100.00;98859.00;109595;1250;64842;-74
2023/04/07 02:05:39;;;;;;;55.10;41.10;;;;;;;0.83;100.00;98853.77;109611;1250;59143;-74
2023/04/07 02:08:09;;;;;;;55.70;40.50;;;;;;;0.82;100.00;98851.36;109538;1251;64151;-74
2023/04/07 02:10:37;;;;;;;58.20;39.50;;;;;;;0.83;100.00;98853.44;109568;1251;59042;-74
2023/04/07 02:13:07;;;;;;;55.80;39.80;;;;;;;0.83;100.00;98856.02;109298;1251;59057;-74
2023/04/07 02:15:36;;;;;;;53.80;39.90;;;;;;;0.83;100.00;98853.94;109586;1251;66013;-74
2023/04/07 02:18:05;;;;;;;52.80;39.70;;;;;;;0.82;100.00;98845.23;109585;1250;60151;-74
2023/04/07 02:20:34;;;;;;;52.00;38.50;;;;;;;0.82;100.00;98845.73;103382;1251;1003140;-74
2023/04/07 02:23:00;;;;;;;48.30;35.40;;;;;;;0.82;100.00;98848.38;109493;1251;59011;-74
2023/04/07 02:25:30;;;;;;;51.50;37.00;;;;;;;0.82;100.00;98847.34;109416;1251;59395;-74
2023/04/07 02:27:58;;;;;;;52.90;38.80;;;;;;;0.84;100.00;98851.65;109532;1251;65858;-74
2023/04/07 02:30:26;;;;;;;48.20;35.50;;;;;;;0.84;100.00;98853.39;109554;1250;60125;-74
2023/04/07 02:32:53;;;;;;;50.90;36.90;;;;;;;0.86;100.00;98855.79;109345;1251;64100;-74
2023/04/07 02:35:20;;;;;;;45.20;34.70;;;;;;;0.87;100.00;98851.38;109539;1251;59188;-74
2023/04/07 02:37:46;;;;;;;43.70;32.00;;;;;;;0.88;100.00;98843.65;109593;1251;59151;-74
2023/04/07 02:40:13;;;;;;;46.90;35.40;;;;;;;0.88;100.00;98841.73;109536;1251;64803;-74
2023/04/07 02:42:40;;;;;;;47.60;35.20;;;;;;;0.88;100.00;98843.66;109284;1251;59235;-74
2023/04/07 02:45:08;;;;;;;46.80;34.20;;;;;;;0.90;100.00;98843.80;109547;1251;64042;-74
2023/04/07 02:47:35;;;;;;;49.90;37.50;;;;;;;0.90;100.00;98842.73;109617;1251;59031;-74
2023/04/07 02:50:02;;;;;;;47.50;36.80;;;;;;;0.91;100.00;98839.73;109561;1251;58956;-74
2023/04/07 02:52:29;;;;;;;45.10;34.40;;;;;;;0.91;100.00;98834.15;109486;1250;66092;-74
2023/04/07 02:54:55;;;;;;;44.10;33.90;;;;;;;0.90;100.00;98830.83;109571;1250;59975;-74
2023/04/07 02:57:22;;;;;;;47.00;35.20;;;;;;;0.90;100.00;98826.29;109552;1251;64021;-74
2023/04/07 02:59:48;;;;;;;48.10;35.00;;;;;;;0.90;100.00;98830.33;109523;1251;59019;-74
2023/04/07 03:02:15;;;;;;;44.70;34.80;;;;;;;0.91;100.00;98829.41;109409;1251;59173;-74
2023/04/07 03:04:41;;;;;;;44.70;32.50;;;;;;;0.93;100.00;98826.21;109546;1250;64981;-74
2023/04/07 03:07:08;;;;;;;44.80;33.40;;;;;;;0.93;100.00;98827.77;109532;1251;60152;-74
2023/04/07 03:09:35;;;;;;;43.00;33.80;;;;;;;0.95;100.00;98833.14;109540;1251;59897;-74
2023/04/07 03:12:02;;;;;;;40.80;32.00;;;;;;;0.95;100.00;98835.58;109603;1251;58985;-74
2023/04/07 03:14:29;;;;;;;44.30;34.30;;;;;;;0.96;100.00;98838.36;109583;1251;58989;-74
2023/04/07 03:16:55;;;;;;;43.30;31.90;;;;;;;0.96;100.00;98841.30;109370;1251;65055;-74
2023/04/07 03:19:22;;;;;;;41.20;30.20;;;;;;;0.97;100.00;98843.20;109592;1251;59003;-73
2023/04/07 03:21:49;;;;;;;42.30;31.40;;;;;;;0.96;100.00;98847.42;108819;1251;1003019;-74
2023/04/07 03:24:15;;;;;;;41.60;31.90;;;;;;;0.97;100.00;98847.77;109533;1251;59026;-74
2023/04/07 03:26:42;;;;;;;43.40;32.50;;;;;;;0.97;100.00;98845.84;109545;1251;59829;-74
2023/04/07 03:29:08;;;;;;;42.90;32.90;;;;;;;0.97;100.00;98848.45;109579;1250;66133;-74
2023/04/07 03:31:36;;;;;;;44.40;32.00;;;;;;;0.98;100.00;98846.85;109591;1251;58991;-74
2023/04/07 03:34:03;;;;;;;41.00;31.00;;;;;;;0.99;100.00;98842.63;109608;1251;63776;-74
2023/04/07 03:36:30;;;;;;;43.00;32.90;;;;;;;0.99;100.00;98840.52;109123;1251;59024;-73
2023/04/07 03:38:57;;;;;;;44.90;32.80;;;;;;;0.98;100.00;98840.38;109573;1251;59040;-74
2023/04/07 03:41:24;;;;;;;40.30;30.90;;;;;;;0.99;100.00;98838.24;109262;1251;66549;-73
2023/04/07 03:43:50;;;;;;;43.50;33.20;;;;;;;0.99;100.00;98835.98;109558;1251;60085;-73
2023/04/07 03:46:20;;;;;;;41.00;31.70;;;;;;;1.00;100.00;98834.73;109585;1251;59059;-73
2023/04/07 03:48:46;;;;;;;46.40;33.50;;;;;;;1.00;100.00;98835.77;109485;1251;58984;-73
2023/04/07 03:51:14;;;;;;;46.30;33.20;;;;;;;1.01;100.00;98835.23;109575;1251;59061;-72
2023/04/07 03:53:41;;;;;;;49.60;35.90;;;;;;;1.01;100.00;98838.20;109504;1251;66077;-73
2023/04/07 03:56:07;;;;;;;51.10;36.20;;;;;;;1.00;100.00;98835.25;109611;1251;59165;-73
2023/04/07 03:58:34;;;;;;;46.20;33.10;;;;;;;1.00;100.00;98833.15;109575;1251;62836;-73
2023/04/07 04:01:01;;;;;;;45.20;33.10;;;;;;;1.00;100.00;98832.96;109499;1251;58978;-73
2023/04/07 04:03:28;;;;;;;45.50;32.80;;;;;;;1.00;100.00;98830.17;109557;1251;59018;-73
2023/04/07 04:05:55;;;;;;;46.60;34.50;;;;;;;0.99;100.00;98829.31;109575;1251;59018;-74
2023/04/07 04:08:21;;;;;;;44.40;33.30;;;;;;;0.98;100.00;98826.73;109385;1251;60109;-73
2023/04/07 04:10:48;;;;;;;45.20;33.50;;;;;;;0.98;100.00;98828.86;109609;1251;59221;-74
2023/04/07 04:13:14;;;;;;;44.40;32.80;;;;;;;0.99;100.00;98833.71;109538;1251;59019;-73
2023/04/07 04:15:41;;;;;;;41.90;30.10;;;;;;;1.00;100.00;98835.61;109384;1251;59025;-73
2023/04/07 04:18:08;;;;;;;41.50;30.90;;;;;;;1.00;100.00;98834.89;109616;1250;58913;-73
2023/04/07 04:20:34;;;;;;;46.40;32.30;;;;;;;1.00;100.00;98834.19;109424;1251;60027;-73
2023/04/07 04:23:01;;;;;;;46.10;33.30;;;;;;;1.01;100.00;98836.09;109577;1251;59141;-73
2023/04/07 04:25:27;;;;;;;39.90;30.20;;;;;;;1.02;100.00;98836.95;109550;1251;59336;-73
2023/04/07 04:27:54;;;;;;;45.00;32.90;;;;;;;1.03;100.00;98837.09;109587;1251;59010;-73
2023/04/07 04:30:21;;;;;;;43.10;32.50;;;;;;;1.03;100.00;98839.02;109544;1251;64854;-73
2023/04/07 04:32:48;;;;;;;44.40;31.90;;;;;;;1.03;100.00;98842.86;109590;1251;60535;-73
2023/04/07 04:35:15;;;;;;;45.10;33.70;;;;;;;1.04;100.00;98846.50;109517;1251;64503;-73
2023/04/07 04:37:41;;;;;;;41.60;29.20;;;;;;;1.05;100.00;98849.63;109560;1251;59217;-74
2023/04/07 04:40:08;;;;;;;41.20;30.50;;;;;;;1.05;100.00;98854.16;109423;1251;58974;-74
2023/04/07 04:42:35;;;;;;;40.10;30.40;;;;;;;1.06;100.00;98852.20;109554;1251;64851;-75
2023/04/07 04:45:02;;;;;;;40.50;30.10;;;;;;;1.08;100.00;98852.32;109594;1251;59195;-73
2023/04/07 04:47:28;;;;;;;44.40;31.00;;;;;;;1.09;100.00;98850.17;109543;1251;64079;-74
2023/04/07 04:49:55;;;;;;;40.20;27.60;;;;;;;1.10;100.00;98848.05;109553;1251;58930;-74
2023/04/07 04:52:21;;;;;;;43.20;29.80;;;;;;;1.12;100.00;98851.50;109590;1251;58980;-75
2023/04/07 04:54:48;;;;;;;35.60;27.00;;;;;;;1.12;100.00;98852.89;109573;1250;64736;-74
2023/04/07 04:57:15;;;;;;;46.40;30.30;;;;;;;1.13;100.00;98853.39;109582;1250;58974;-75
2023/04/07 04:59:41;;;;;;;45.20;33.80;;;;;;;1.13;100.00;98845.35;109530;1251;63957;-72
2023/04/07 05:02:08;;;;;;;44.10;30.50;;;;;;;1.13;100.00;98842.02;109357;1251;59147;-73
2023/04/07 05:04:35;;;;;;;42.80;31.20;;;;;;;1.11;100.00;98840.33;109587;1251;58846;-73
2023/04/07 05:07:02;;;;;;;42.60;30.90;;;;;;;1.09;100.00;98843.16;109583;1250;66165;-73
2023/04/07 05:09:29;;;;;;;43.60;31.50;;;;;;;1.10;100.00;98851.90;109361;1251;60134;-73
2023/04/07 05:11:56;;;;;;;47.40;33.60;;;;;;;1.12;100.00;98856.05;109530;1250;58970;-76
2023/04/07 05:14:23;;;;;;;45.30;31.00;;;;;;;1.15;100.00;98852.98;109472;1251;58977;-74
2023/04/07 05:16:50;;;;;;;44.70;31.30;;;;;;;1.17;100.00;98859.02;109620;1251;59037;-73
2023/04/07 05:19:16;;;;;;;42.30;28.30;;;;;;;1.20;100.00;98857.90;109552;1250;64898;-73
2023/04/07 05:21:43;;;;;;;48.20;33.90;;;;;;;1.22;100.00;98856.25;109370;1251;59516;-73
2023/04/07 05:24:09;;;;;;;45.70;31.20;;;;;;;1.24;100.00;98854.82;109547;1251;59263;-75
2023/04/07 05:26:36;;;;;;;46.50;31.00;;;;;;;1.25;100.00;98856.33;109287;1251;58964;-75
2023/04/07 05:29:02;;;;;;;43.00;31.20;;;;;;;1.26;100.00;98858.07;109555;1251;59143;-74
2023/04/07 05:31:29;;;;;;;42.80;32.10;;;;;;;1.28;100.00;98860.98;109588;1251;58961;-75
2023/04/07 05:33:55;;;;;;;43.40;30.70;;;;;;;1.30;100.00;98859.52;109599;1251;59035;-73
2023/04/07 05:36:22;;;;;;;45.00;32.20;;;;;;;1.31;100.00;98859.64;109509;1251;63094;-74
2023/04/07 05:38:48;;;;;;;47.20;32.10;;;;;;;1.32;100.00;98860.33;109547;1251;59168;-74
2023/04/07 05:41:15;;;;;;;45.70;31.20;;;;;;;1.33;100.00;98856.81;109380;1251;58954;-73
2023/04/07 05:43:42;;;;;;;47.70;29.90;;;;;;;1.33;100.00;98858.20;109553;1251;65730;-74
2023/04/07 05:46:08;;;;;;;44.90;31.50;;;;;;;1.35;100.00;98857.42;109560;1251;59025;-74
2023/04/07 05:48:35;;;;;;;45.50;31.40;;;;;;;1.36;100.00;98853.54;109562;1251;59007;-74
2023/04/07 05:51:01;;;;;;;45.90;31.30;;;;;;;1.41;100.00;98851.47;109548;1251;58995;-75
2023/04/07 05:53:28;;;;;;;47.60;33.40;;;;;;;1.44;100.00;98849.44;109330;1251;59059;-74
2023/04/07 05:55:54;;;;;;;47.30;31.90;;;;;;;1.49;100.00;98843.31;109532;1251;59296;-74
2023/04/07 05:58:21;;;;;;;54.30;34.90;;;;;;;1.54;100.00;98841.41;109599;1251;59989;-74
2023/04/07 06:00:47;;;;;;;44.90;31.60;;;;;;;1.56;100.00;98840.98;109577;1251;63457;-74
2023/04/07 06:03:14;;;;;;;44.80;30.70;;;;;;;1.58;100.00;98840.58;109506;1251;58963;-74
2023/04/07 06:05:42;;;;;;;47.10;32.40;;;;;;;1.58;100.00;98835.69;107051;1251;1002433;-74
2023/04/07 06:08:09;;;;;;;49.30;33.10;;;;;;;1.60;100.00;98831.77;109554;1250;66019;-73
2023/04/07 06:10:36;;;;;;;51.90;35.80;;;;;;;1.65;100.00;98841.57;109548;1251;59026;-75
2023/04/07 06:13:02;;;;;;;53.80;39.00;;;;;;;1.69;100.00;98855.83;109505;1251;62841;-74
2023/04/07 06:15:29;;;;;;;45.30;34.10;;;;;;;1.71;100.00;98860.46;109556;1251;58971;-74
2023/04/07 06:17:56;;;;;;;43.70;33.80;;;;;;;1.75;100.00;98858.05;109592;1251;59268;-74
2023/04/07 06:20:23;;;;;;;46.90;33.70;;;;;;;1.79;100.00;98860.03;109568;1251;58861;-74
2023/04/07 06:22:49;;;;;;;46.00;34.00;;;;;;;1.83;100.00;98863.04;109618;1251;60567;-74
2023/04/07 06:25:16;;;;;;;44.70;32.10;;;;;;;1.87;100.00;98870.62;109422;1251;64105;-74
2023/04/07 06:27:42;;;;;;;40.20;29.30;;;;;;;1.89;100.00;98872.83;109521;1251;59030;-74
2023/04/07 06:30:10;;;;;;;40.90;29.70;;;;;;;1.89;100.00;98873.52;109559;1251;58870;-74
2023/04/07 06:32:36;;;;;;;41.00;28.10;;;;;;;1.90;100.00;98870.33;109590;1251;66024;-75
2023/04/07 06:35:03;;;;;;;37.40;28.90;;;;;;;1.92;100.00;98866.95;109628;1250;59292;-74
2023/04/07 06:37:29;;;;;;;36.60;27.20;;;;;;;1.93;100.00;98865.14;109486;1251;62984;-74
2023/04/07 06:39:56;;;;;;;35.40;26.50;;;;;;;1.94;100.00;98862.31;109207;1251;59027;-74
2023/04/07 06:42:23;;;;;;;36.50;26.90;;;;;;;1.93;100.00;98857.09;109584;1251;58923;-74
2023/04/07 06:44:49;;;;;;;35.50;25.20;;;;;;;1.92;100.00;98853.80;109561;1253;66009;-74
2023/04/07 06:47:16;;;;;;;34.70;25.20;;;;;;;1.92;100.00;98853.61;109545;1251;59208;-73
2023/04/07 06:49:42;;;;;;;33.60;25.90;;;;;;;1.95;100.00;98851.26;109584;1251;59246;-73
2023/04/07 06:52:09;;;;;;;32.80;25.00;;;;;;;1.98;100.00;98856.41;109531;1251;59265;-73
2023/04/07 06:54:35;;;;;;;34.80;25.10;;;;;;;2.02;100.00;98858.36;109553;1251;58856;-74
2023/04/07 06:57:02;;;;;;;37.80;27.20;;;;;;;2.07;100.00;98853.12;109569;1251;59446;-75
2023/04/07 06:59:28;;;;;;;38.20;25.60;;;;;;;2.12;100.00;98853.98;109527;1251;59898;-75
2023/04/07 07:01:55;;;;;;;39.00;27.70;;;;;;;2.15;100.00;98857.73;109561;1251;62574;-74
2023/04/07 07:04:21;;;;;;;36.60;25.40;;;;;;;2.17;100.00;98851.18;109532;1251;59192;-74
2023/04/07 07:06:52;;;;;;;39.10;27.70;;;;;;;2.19;100.00;98852.17;109540;1250;58918;-74
2023/04/07 07:09:18;;;;;;;35.20;25.60;;;;;;;2.24;100.00;98852.86;109516;1251;64841;-75
2023/04/07 07:11:45;;;;;;;33.90;24.70;;;;;;;2.28;100.00;98853.61;109566;1251;59077;-75
2023/04/07 07:14:12;;;;;;;36.50;26.60;;;;;;;2.29;100.00;98852.67;109566;1251;62834;-75
2023/04/07 07:16:40;;;;;;;33.60;26.50;;;;;;;2.32;100.00;98848.75;109552;1251;59024;-75
2023/04/07 07:19:06;;;;;;;35.70;27.60;;;;;;;2.37;100.00;98849.95;109559;1251;59041;-74
2023/04/07 07:21:32;;;;;;;31.90;24.20;;;;;;;2.39;100.00;98852.13;109581;1250;64778;-74
2023/04/07 07:23:59;;;;;;;34.20;25.00;;;;;;;2.39;100.00;98859.33;109510;1251;59048;-74
2023/04/07 07:26:26;;;;;;;31.30;24.50;;;;;;;2.41;100.00;98858.39;109529;1251;63737;-74
2023/04/07 07:28:52;;;;;;;35.30;26.70;;;;;;;2.43;100.00;98864.13;109526;1251;59018;-74
2023/04/07 07:31:19;;;;;;;29.60;23.30;;;;;;;2.46;100.00;98863.83;109584;1251;59242;-74
2023/04/07 07:33:47;;;;;;;37.90;26.80;;;;;;;2.48;100.00;98865.52;109550;1251;66112;-74
2023/04/07 07:36:14;;;;;;;32.70;26.60;;;;;;;2.50;100.00;98869.11;109592;1251;60140;-73
2023/04/07 07:38:40;;;;;;;31.40;25.50;;;;;;;2.52;100.00;98870.98;109503;1251;64066;-73
2023/04/07 07:41:07;;;;;;;33.50;25.60;;;;;;;2.52;100.00;98873.61;109297;1251;59086;-72
2023/04/07 07:43:34;;;;;;;31.50;23.80;;;;;;;2.52;100.00;98880.08;109420;1251;58911;-73
2023/04/07 07:46:00;;;;;;;31.40;25.50;;;;;;;2.55;100.00;98880.17;109551;1250;66041;-73
2023/04/07 07:48:27;;;;;;;34.40;26.10;;;;;;;2.60;100.00;98862.45;109626;1251;59028;-73
2023/04/07 07:50:55;;;;;;;32.60;24.70;;;;;;;2.66;100.00;98855.20;109575;1251;59179;-74
2023/04/07 07:53:22;;;;;;;34.20;25.60;;;;;;;2.70;100.00;98858.58;109080;1251;59257;-73
2023/04/07 07:55:48;;;;;;;33.90;25.40;;;;;;;2.77;100.00;98852.31;109566;1251;59021;-72
2023/04/07 07:58:15;;;;;;;32.30;24.80;;;;;;;2.90;100.00;98856.94;109579;1250;66010;-73
2023/04/07 08:00:41;;;;;;;30.60;22.60;;;;;;;2.97;100.00;98863.50;109606;1251;59021;-73
2023/04/07 08:03:08;;;;;;;28.60;21.60;;;;;;;3.02;100.00;98856.48;109537;1251;63081;-73
2023/04/07 08:05:34;;;;;;;28.70;23.30;;;;;;;3.05;100.00;98859.89;109546;1251;59018;-73
2023/04/07 08:08:01;;;;;;;26.50;20.80;;;;;;;3.07;100.00;98861.72;109287;1251;59268;-73
2023/04/07 08:10:28;;;;;;;23.90;20.30;;;;;;;3.07;100.00;98861.73;109548;1251;65318;-73
2023/04/07 08:12:55;;;;;;;23.60;18.50;;;;;;;3.04;100.00;98866.92;109548;1251;59737;-73
2023/04/07 08:15:21;;;;;;;25.90;21.70;;;;;;;2.99;100.00;98867.98;109484;1251;62826;-74
2023/04/07 08:17:48;;;;;;;26.20;20.60;;;;;;;2.98;100.00;98871.71;109592;1251;58934;-73
2023/04/07 08:20:15;;;;;;;24.90;19.50;;;;;;;3.05;100.00;98866.89;109564;1250;59027;-73
2023/04/07 08:22:41;;;;;;;26.00;21.40;;;;;;;3.13;100.00;98863.95;109549;1251;66000;-73
2023/04/07 08:25:09;;;;;;;25.80;21.40;;;;;;;3.18;100.00;98868.48;109541;1251;59744;-74
2023/04/07 08:27:35;;;;;;;22.20;18.70;;;;;;;3.26;100.00;98867.48;109534;1251;62825;-73
2023/04/07 08:30:07;;;;;;;23.20;19.40;;;;;;;3.36;100.00;98863.41;109529;1251;58983;-73
2023/04/07 08:32:39;;;;;;;27.20;19.90;;;;;;;3.39;100.00;98859.42;109555;1251;59001;-73
2023/04/07 08:35:06;;;;;;;26.00;20.80;;;;;;;3.42;100.00;98859.98;109512;1253;64811;-73
2023/04/07 08:37:33;;;;;;;27.10;19.90;;;;;;;3.39;100.00;98864.66;109336;1254;59191;-74
2023/04/07 08:40:02;;;;;;;25.00;19.10;;;;;;;3.32;100.00;98863.89;109276;1254;62780;-74
2023/04/07 08:42:31;;;;;;;28.50;20.50;;;;;;;3.29;100.00;98861.20;109284;1254;59316;-74
2023/04/07 08:45:02;;;;;;;22.70;19.20;;;;;;;3.34;100.00;98860.16;109196;1254;59037;-74
2023/04/07 08:47:33;;;;;;;23.90;20.00;;;;;;;3.40;100.00;98857.28;109335;1253;66505;-74
2023/04/07 08:50:07;;;;;;;25.50;20.50;;;;;;;3.42;100.00;98856.67;109328;1253;61465;-73
2023/04/07 08:52:40;;;;;;;23.70;20.40;;;;;;;3.42;100.00;98858.94;109299;1254;64848;-74
2023/04/07 08:55:11;;;;;;;25.60;19.80;;;;;;;3.43;100.00;98857.52;109316;1254;59067;-73
2023/04/07 08:57:38;;;;;;;22.90;19.90;;;;;;;3.40;100.00;98855.16;109287;1254;59130;-74
2023/04/07 09:00:05;;;;;;;27.90;22.10;;;;;;;3.32;100.00;98858.11;109218;1254;66926;-74
2023/04/07 09:02:52;;;;;;;28.90;22.00;;;;;;;3.23;100.00;98856.91;109010;1254;70090;-74
2023/04/07 09:05:20;;;;;;;22.70;18.20;;;;;;;3.20;100.00;98859.12;109293;1254;64061;-74
2023/04/07 09:07:46;;;;;;;25.50;21.60;;;;;;;3.11;100.00;98853.67;109237;1254;59098;-74
2023/04/07 09:10:13;;;;;;;27.40;20.90;;;;;;;3.02;100.00;98847.33;109300;1254;58935;-74
2023/04/07 09:12:40;;;;;;;23.90;20.70;;;;;;;3.01;100.00;98847.41;109287;1254;59097;-73
2023/04/07 09:15:07;;;;;;;27.50;22.10;;;;;;;3.01;100.00;98843.34;109454;1251;60137;-73
2023/04/07 09:17:34;;;;;;;27.60;20.60;;;;;;;3.04;100.00;98846.55;109371;1251;64320;-73
2023/04/07 09:20:01;;;;;;;24.20;20.70;;;;;;;3.08;100.00;98849.23;109549;1251;58988;-74
2023/04/07 09:22:35;;;;;;;21.90;18.80;;;;;;;3.12;100.00;98847.83;109365;1256;160469;-78
2023/04/07 09:25:25;;;;;;;22.60;19.50;;;;;;;3.17;100.00;98849.23;109492;1250;66048;-81
2023/04/07 09:28:02;;;;;;;23.60;19.60;;;;;;;3.23;100.00;98845.09;109530;1251;60175;-81
2023/04/07 09:30:30;;;;;;;20.10;17.10;;;;;;;3.30;100.00;98846.42;109560;1251;64067;-80
2023/04/07 09:32:58;;;;;;;17.50;15.30;;;;;;;3.28;100.00;98849.48;109788;1251;59114;-80
2023/04/07 09:35:27;;;;;;;17.70;15.80;;;;;;;3.23;100.00;98848.11;109644;1251;59062;-80
2023/04/07 09:38:07;;;;;;;17.20;14.90;;;;;;;3.17;100.00;98845.37;109866;1250;66082;-80
2023/04/07 09:40:35;;;;;;;20.00;17.20;;;;;;;3.13;100.00;98845.34;109791;1251;59054;-81
2023/04/07 09:43:03;;;;;;;21.20;17.60;;;;;;;3.10;100.00;98848.98;109646;1251;62780;-81
2023/04/07 09:45:31;;;;;;;21.00;17.80;;;;;;;3.11;100.00;98852.79;109633;1251;59017;-80
2023/04/07 09:47:58;;;;;;;19.80;17.60;;;;;;;3.16;100.00;98851.20;109781;1251;58843;-81
2023/04/07 09:50:35;;;;;;;23.30;19.60;;;;;;;3.16;100.00;98852.94;109752;1249;64732;-80
2023/04/07 09:53:03;;;;;;;23.60;18.80;;;;;;;3.11;100.00;98853.51;109745;1250;59000;-80
2023/04/07 09:55:30;;;;;;;20.40;16.70;;;;;;;3.09;100.00;98857.97;109804;1250;64167;-80
2023/04/07 09:57:57;;;;;;;20.20;18.00;;;;;;;3.08;100.00;98864.34;109752;1253;58953;-79
2023/04/07 10:00:24;;;;;;;22.20;18.30;;;;;;;3.02;100.00;98868.73;109682;1250;59352;-79
2023/04/07 10:02:51;;;;;;;23.90;20.20;;;;;;;2.97;100.00;98871.05;109661;1251;65705;-80
2023/04/07 10:05:21;;;;;;;29.20;25.00;;;;;;;2.96;100.00;98870.20;109678;1250;60202;-80
2023/04/07 10:07:48;;;;;;;22.80;18.10;;;;;;;2.98;100.00;98871.53;109203;1255;64119;-80
2023/04/07 10:10:15;;;;;;;22.50;19.90;;;;;;;2.98;100.00;98870.13;108975;1260;59387;-79
2023/04/07 10:12:43;;;;;;;22.50;18.40;;;;;;;2.96;100.00;98871.61;109249;1256;59172;-80
2023/04/07 10:15:15;;;;;;;20.60;17.80;;;;;;;2.94;100.00;98869.60;109130;1257;66038;-80
2023/04/07 10:17:50;;;;;;;23.70;20.20;;;;;;;2.93;100.00;98864.89;109206;1256;60119;-79
2023/04/07 10:20:19;;;;;;;24.80;19.00;;;;;;;2.95;100.00;98860.44;109112;1259;65044;-80
2023/04/07 10:22:50;;;;;;;23.10;18.90;;;;;;;2.99;100.00;98859.77;109101;1255;59034;-80
2023/04/07 10:25:22;;;;;;;25.60;19.30;;;;;;;3.01;100.00;98858.63;109151;1255;59074;-80
2023/04/07 10:27:59;;;;;;;25.10;19.60;;;;;;;3.04;100.00;98858.31;109006;1254;66045;-80
2023/04/07 10:30:29;;;;;;;23.90;20.10;;;;;;;3.06;100.00;98859.66;109160;1257;60128;-80
2023/04/07 10:32:56;;;;;;;24.80;21.20;;;;;;;3.09;100.00;98859.17;109217;1257;64103;-80
2023/04/07 10:35:23;;;;;;;23.20;20.50;;;;;;;3.13;100.00;98862.57;109014;1256;58993;-80
2023/04/07 10:38:12;;;;;;;25.60;21.70;;;;;;;3.15;100.00;98863.55;109131;1255;59248;-80
2023/04/07 10:40:40;;;;;;;29.10;21.40;;;;;;;3.18;100.00;98862.19;109337;1250;64828;-79
2023/04/07 10:43:10;;;;;;;26.00;21.20;;;;;;;3.22;100.00;98860.06;109708;1251;60166;-80
2023/04/07 10:45:51;;;;;;;23.90;20.50;;;;;;;3.23;100.00;98857.94;109675;1250;62987;-81
2023/04/07 10:48:18;;;;;;;;;;;;;;;3.23;100.00;98856.70;109721;1250;58954;-81
2023/04/07 10:50:45;;;;;;;23.00;17.50;;;;;;;3.24;100.00;98851.94;109691;1250;58921;-80
2023/04/07 10:53:13;;;;;;;22.80;19.20;;;;;;;3.23;100.00;98846.55;109723;1249;66098;-81
2023/04/07 10:55:44;;;;;;;25.00;20.70;;;;;;;3.21;100.00;98843.45;109379;1250;59303;-81
2023/04/07 10:58:23;;;;;;;22.80;19.20;;;;;;;3.25;100.00;98845.23;109698;1250;63841;-80
2023/04/07 11:00:56;;;;;;;22.60;19.50;;;;;;;3.29;100.00;98849.79;109661;1250;58970;-80
2023/04/07 11:03:23;;;;;;;23.30;20.80;;;;;;;3.33;100.00;98850.20;109710;1249;59074;-81
2023/04/07 11:05:50;;;;;;;23.60;18.90;;;;;;;3.38;100.00;98846.48;109683;1251;66023;-81
2023/04/07 11:08:35;;;;;;;22.30;18.80;;;;;;;3.36;100.00;98843.73;109668;1250;58976;-80
2023/04/07 11:11:12;;;;;;;26.60;21.60;;;;;;;3.31;100.00;98846.20;109711;1250;64649;-81
2023/04/07 11:13:45;;;;;;;23.10;20.20;;;;;;;3.29;100.00;98847.52;109324;1250;59114;-81
2023/04/07 11:16:12;;;;;;;37.30;25.10;;;;;;;3.24;100.00;98845.24;109671;1251;59022;-81